sensor_id;sensor_type;location;lat;lon;timestamp;P1;durP1;ratioP1;P2;durP2;ratioP2
38715;SDS011;24833;49.324;8.694;2022-10-31T00:01:25;6.78;;;2.47;;
38715;SDS011;24833;49.324;8.694;2022-10-31T00:03:59;4.13;;;2.55;;
38715;SDS011;24833;49.324;8.694;2022-10-31T00:06:27;9.73;;;3.05;;
38715;SDS011;24833;49.324;8.694;2022-10-31T00:08:57;6.10;;;3.40;;
38715;SDS011;24833;49.324;8.694;2022-10-31T00:11:27;5.45;;;2.65;;
38715;SDS011;24833;49.324;8.694;2022-10-31T00:13:56;6.47;;;2.67;;
38715;SDS011;24833;49.324;8.694;2022-10-31T00:16:25;5.70;;;3.07;;
38715;SDS011;24833;49.324;8.694;2022-10-31T00:18:54;7.07;;;2.55;;
38715;SDS011;24833;49.324;8.694;2022-10-31T00:21:24;6.70;;;2.30;;
38715;SDS011;24833;49.324;8.694;2022-10-31T00:23:51;5.93;;;2.75;;
38715;SDS011;24833;49.324;8.694;2022-10-31T00:26:19;6.45;;;2.70;;
38715;SDS011;24833;49.324;8.694;2022-10-31T00:28:47;6.22;;;2.47;;
38715;SDS011;24833;49.324;8.694;2022-10-31T00:31:14;3.83;;;2.50;;
38715;SDS011;24833;49.324;8.694;2022-10-31T00:33:43;3.45;;;2.63;;
38715;SDS011;24833;49.324;8.694;2022-10-31T00:36:12;6.65;;;2.65;;
38715;SDS011;24833;49.324;8.694;2022-10-31T00:38:42;3.50;;;2.25;;
38715;SDS011;24833;49.324;8.694;2022-10-31T00:41:12;6.40;;;2.70;;
38715;SDS011;24833;49.324;8.694;2022-10-31T00:43:41;7.72;;;2.45;;
38715;SDS011;24833;49.324;8.694;2022-10-31T00:46:09;5.40;;;2.90;;
38715;SDS011;24833;49.324;8.694;2022-10-31T00:48:37;6.95;;;2.63;;
38715;SDS011;24833;49.324;8.694;2022-10-31T00:51:04;9.18;;;2.47;;
38715;SDS011;24833;49.324;8.694;2022-10-31T00:53:32;5.13;;;2.33;;
38715;SDS011;24833;49.324;8.694;2022-10-31T00:55:59;4.10;;;2.58;;
38715;SDS011;24833;49.324;8.694;2022-10-31T00:58:26;7.45;;;3.05;;
38715;SDS011;24833;49.324;8.694;2022-10-31T01:00:54;5.07;;;2.83;;
38715;SDS011;24833;49.324;8.694;2022-10-31T01:03:22;6.10;;;3.25;;
38715;SDS011;24833;49.324;8.694;2022-10-31T01:05:58;3.35;;;2.20;;
38715;SDS011;24833;49.324;8.694;2022-10-31T01:08:31;3.45;;;2.33;;
38715;SDS011;24833;49.324;8.694;2022-10-31T01:13:34;3.85;;;2.25;;
38715;SDS011;24833;49.324;8.694;2022-10-31T01:16:02;4.15;;;2.40;;
38715;SDS011;24833;49.324;8.694;2022-10-31T01:18:33;3.90;;;1.88;;
38715;SDS011;24833;49.324;8.694;2022-10-31T01:21:01;4.75;;;2.28;;
38715;SDS011;24833;49.324;8.694;2022-10-31T01:23:35;5.43;;;2.00;;
38715;SDS011;24833;49.324;8.694;2022-10-31T01:26:05;6.15;;;2.20;;
38715;SDS011;24833;49.324;8.694;2022-10-31T01:28:43;3.75;;;1.95;;
38715;SDS011;24833;49.324;8.694;2022-10-31T01:31:13;7.07;;;2.17;;
38715;SDS011;24833;49.324;8.694;2022-10-31T01:33:41;3.40;;;2.30;;
38715;SDS011;24833;49.324;8.694;2022-10-31T01:39:14;5.35;;;2.38;;
38715;SDS011;24833;49.324;8.694;2022-10-31T01:41:43;6.18;;;2.50;;
38715;SDS011;24833;49.324;8.694;2022-10-31T01:46:40;3.42;;;1.88;;
38715;SDS011;24833;49.324;8.694;2022-10-31T01:49:21;4.07;;;1.98;;
38715;SDS011;24833;49.324;8.694;2022-10-31T01:55:06;3.97;;;2.08;;
38715;SDS011;24833;49.324;8.694;2022-10-31T01:57:50;4.07;;;1.92;;
38715;SDS011;24833;49.324;8.694;2022-10-31T02:00:21;4.35;;;2.35;;
38715;SDS011;24833;49.324;8.694;2022-10-31T02:02:49;4.28;;;2.00;;
38715;SDS011;24833;49.324;8.694;2022-10-31T02:05:18;3.30;;;1.70;;
38715;SDS011;24833;49.324;8.694;2022-10-31T02:10:35;2.63;;;2.10;;
38715;SDS011;24833;49.324;8.694;2022-10-31T02:13:04;4.13;;;2.08;;
38715;SDS011;24833;49.324;8.694;2022-10-31T02:15:40;3.75;;;2.10;;
38715;SDS011;24833;49.324;8.694;2022-10-31T02:18:09;4.90;;;2.03;;
38715;SDS011;24833;49.324;8.694;2022-10-31T02:20:58;5.18;;;2.13;;
38715;SDS011;24833;49.324;8.694;2022-10-31T02:29:50;3.72;;;1.95;;
38715;SDS011;24833;49.324;8.694;2022-10-31T02:41:16;3.53;;;1.92;;
38715;SDS011;24833;49.324;8.694;2022-10-31T02:47:13;6.22;;;2.72;;
38715;SDS011;24833;49.324;8.694;2022-10-31T02:49:48;12.68;;;2.78;;
38715;SDS011;24833;49.324;8.694;2022-10-31T02:52:33;3.65;;;2.15;;
38715;SDS011;24833;49.324;8.694;2022-10-31T02:58:02;3.42;;;2.00;;
38715;SDS011;24833;49.324;8.694;2022-10-31T03:00:41;3.95;;;2.25;;
38715;SDS011;24833;49.324;8.694;2022-10-31T03:03:40;3.20;;;2.03;;
38715;SDS011;24833;49.324;8.694;2022-10-31T03:06:37;7.68;;;2.25;;
38715;SDS011;24833;49.324;8.694;2022-10-31T03:17:22;4.65;;;3.03;;
38715;SDS011;24833;49.324;8.694;2022-10-31T03:19:58;4.65;;;2.03;;
38715;SDS011;24833;49.324;8.694;2022-10-31T03:22:29;6.35;;;2.45;;
38715;SDS011;24833;49.324;8.694;2022-10-31T03:25:00;5.07;;;2.20;;
38715;SDS011;24833;49.324;8.694;2022-10-31T03:27:32;3.67;;;2.53;;
38715;SDS011;24833;49.324;8.694;2022-10-31T03:30:03;4.82;;;2.30;;
38715;SDS011;24833;49.324;8.694;2022-10-31T03:32:50;4.13;;;2.63;;
38715;SDS011;24833;49.324;8.694;2022-10-31T03:35:22;3.25;;;2.17;;
38715;SDS011;24833;49.324;8.694;2022-10-31T03:37:52;4.03;;;2.78;;
38715;SDS011;24833;49.324;8.694;2022-10-31T03:40:21;12.32;;;2.97;;
38715;SDS011;24833;49.324;8.694;2022-10-31T03:45:28;7.75;;;2.58;;
38715;SDS011;24833;49.324;8.694;2022-10-31T03:47:57;5.07;;;2.47;;
38715;SDS011;24833;49.324;8.694;2022-10-31T03:50:28;7.30;;;2.88;;
38715;SDS011;24833;49.324;8.694;2022-10-31T03:53:13;4.95;;;3.20;;
38715;SDS011;24833;49.324;8.694;2022-10-31T03:58:26;6.13;;;3.47;;
38715;SDS011;24833;49.324;8.694;2022-10-31T04:01:04;5.40;;;3.30;;
38715;SDS011;24833;49.324;8.694;2022-10-31T04:03:36;8.15;;;4.25;;
38715;SDS011;24833;49.324;8.694;2022-10-31T04:06:07;9.25;;;3.90;;
38715;SDS011;24833;49.324;8.694;2022-10-31T04:08:39;10.02;;;4.22;;
38715;SDS011;24833;49.324;8.694;2022-10-31T04:11:17;7.22;;;3.80;;
38715;SDS011;24833;49.324;8.694;2022-10-31T04:14:09;8.75;;;3.92;;
38715;SDS011;24833;49.324;8.694;2022-10-31T04:16:42;10.15;;;4.38;;
38715;SDS011;24833;49.324;8.694;2022-10-31T04:19:11;8.93;;;3.92;;
38715;SDS011;24833;49.324;8.694;2022-10-31T04:21:39;9.68;;;4.10;;
38715;SDS011;24833;49.324;8.694;2022-10-31T04:24:09;6.93;;;3.73;;
38715;SDS011;24833;49.324;8.694;2022-10-31T04:26:38;7.65;;;3.80;;
38715;SDS011;24833;49.324;8.694;2022-10-31T04:29:06;8.30;;;3.88;;
38715;SDS011;24833;49.324;8.694;2022-10-31T04:31:33;5.63;;;4.22;;
38715;SDS011;24833;49.324;8.694;2022-10-31T04:34:00;7.85;;;3.92;;
38715;SDS011;24833;49.324;8.694;2022-10-31T04:36:27;8.88;;;3.97;;
38715;SDS011;24833;49.324;8.694;2022-10-31T04:38:54;6.95;;;3.40;;
38715;SDS011;24833;49.324;8.694;2022-10-31T04:41:34;5.45;;;3.38;;
38715;SDS011;24833;49.324;8.694;2022-10-31T04:44:05;4.80;;;3.33;;
38715;SDS011;24833;49.324;8.694;2022-10-31T04:46:32;5.43;;;3.28;;
38715;SDS011;24833;49.324;8.694;2022-10-31T04:49:02;7.30;;;3.60;;
38715;SDS011;24833;49.324;8.694;2022-10-31T04:51:29;7.18;;;3.58;;
38715;SDS011;24833;49.324;8.694;2022-10-31T04:53:56;7.45;;;3.20;;
38715;SDS011;24833;49.324;8.694;2022-10-31T04:56:41;9.30;;;3.95;;
38715;SDS011;24833;49.324;8.694;2022-10-31T04:59:14;3.33;;;2.22;;
38715;SDS011;24833;49.324;8.694;2022-10-31T05:01:50;3.95;;;2.78;;
38715;SDS011;24833;49.324;8.694;2022-10-31T05:04:24;3.97;;;2.38;;
38715;SDS011;24833;49.324;8.694;2022-10-31T05:06:51;3.53;;;2.47;;
38715;SDS011;24833;49.324;8.694;2022-10-31T05:09:18;3.78;;;2.47;;
38715;SDS011;24833;49.324;8.694;2022-10-31T05:11:45;3.00;;;2.30;;
38715;SDS011;24833;49.324;8.694;2022-10-31T05:14:45;4.40;;;2.90;;
38715;SDS011;24833;49.324;8.694;2022-10-31T05:17:32;3.33;;;2.47;;
38715;SDS011;24833;49.324;8.694;2022-10-31T05:20:20;3.50;;;2.35;;
38715;SDS011;24833;49.324;8.694;2022-10-31T05:23:10;5.15;;;2.38;;
38715;SDS011;24833;49.324;8.694;2022-10-31T05:25:39;3.60;;;2.55;;
38715;SDS011;24833;49.324;8.694;2022-10-31T05:28:07;5.57;;;2.88;;
38715;SDS011;24833;49.324;8.694;2022-10-31T05:30:34;5.05;;;2.45;;
38715;SDS011;24833;49.324;8.694;2022-10-31T05:33:03;4.30;;;2.40;;
38715;SDS011;24833;49.324;8.694;2022-10-31T05:35:53;3.60;;;1.98;;
38715;SDS011;24833;49.324;8.694;2022-10-31T05:38:38;6.35;;;2.75;;
38715;SDS011;24833;49.324;8.694;2022-10-31T05:41:12;4.75;;;2.50;;
38715;SDS011;24833;49.324;8.694;2022-10-31T05:43:43;3.38;;;2.15;;
38715;SDS011;24833;49.324;8.694;2022-10-31T05:46:12;5.75;;;2.47;;
38715;SDS011;24833;49.324;8.694;2022-10-31T05:48:59;3.13;;;2.22;;
38715;SDS011;24833;49.324;8.694;2022-10-31T05:54:37;5.70;;;2.47;;
38715;SDS011;24833;49.324;8.694;2022-10-31T05:57:04;4.97;;;2.17;;
38715;SDS011;24833;49.324;8.694;2022-10-31T05:59:31;5.30;;;2.92;;
38715;SDS011;24833;49.324;8.694;2022-10-31T06:01:59;8.65;;;3.15;;
38715;SDS011;24833;49.324;8.694;2022-10-31T06:04:47;5.25;;;2.42;;
38715;SDS011;24833;49.324;8.694;2022-10-31T06:07:14;7.18;;;2.72;;
38715;SDS011;24833;49.324;8.694;2022-10-31T06:09:42;4.03;;;2.55;;
38715;SDS011;24833;49.324;8.694;2022-10-31T06:12:09;4.38;;;2.30;;
38715;SDS011;24833;49.324;8.694;2022-10-31T06:15:11;5.32;;;2.38;;
38715;SDS011;24833;49.324;8.694;2022-10-31T06:17:41;6.97;;;2.85;;
38715;SDS011;24833;49.324;8.694;2022-10-31T06:20:08;7.80;;;3.03;;
38715;SDS011;24833;49.324;8.694;2022-10-31T06:22:45;7.10;;;2.90;;
38715;SDS011;24833;49.324;8.694;2022-10-31T06:25:12;4.10;;;2.60;;
38715;SDS011;24833;49.324;8.694;2022-10-31T06:27:44;6.70;;;2.55;;
38715;SDS011;24833;49.324;8.694;2022-10-31T06:30:13;4.40;;;2.65;;
38715;SDS011;24833;49.324;8.694;2022-10-31T06:32:41;6.18;;;2.85;;
38715;SDS011;24833;49.324;8.694;2022-10-31T06:35:09;6.95;;;2.40;;
38715;SDS011;24833;49.324;8.694;2022-10-31T06:37:36;4.68;;;2.55;;
38715;SDS011;24833;49.324;8.694;2022-10-31T06:40:26;4.55;;;2.22;;
38715;SDS011;24833;49.324;8.694;2022-10-31T06:43:15;3.85;;;2.33;;
38715;SDS011;24833;49.324;8.694;2022-10-31T06:45:43;6.00;;;2.97;;
38715;SDS011;24833;49.324;8.694;2022-10-31T06:48:40;4.72;;;2.53;;
38715;SDS011;24833;49.324;8.694;2022-10-31T06:51:17;6.03;;;2.70;;
38715;SDS011;24833;49.324;8.694;2022-10-31T06:53:45;5.72;;;2.47;;
38715;SDS011;24833;49.324;8.694;2022-10-31T06:56:14;3.45;;;2.25;;
38715;SDS011;24833;49.324;8.694;2022-10-31T06:58:47;4.35;;;2.78;;
38715;SDS011;24833;49.324;8.694;2022-10-31T07:01:16;4.88;;;2.47;;
38715;SDS011;24833;49.324;8.694;2022-10-31T07:03:43;4.93;;;2.40;;
38715;SDS011;24833;49.324;8.694;2022-10-31T07:06:10;3.65;;;2.17;;
38715;SDS011;24833;49.324;8.694;2022-10-31T07:08:38;4.60;;;2.40;;
38715;SDS011;24833;49.324;8.694;2022-10-31T07:11:05;3.47;;;2.20;;
38715;SDS011;24833;49.324;8.694;2022-10-31T07:13:33;3.95;;;2.13;;
38715;SDS011;24833;49.324;8.694;2022-10-31T07:16:04;6.28;;;2.92;;
38715;SDS011;24833;49.324;8.694;2022-10-31T07:18:34;5.47;;;2.67;;
38715;SDS011;24833;49.324;8.694;2022-10-31T07:21:02;5.72;;;2.70;;
38715;SDS011;24833;49.324;8.694;2022-10-31T07:23:31;5.43;;;2.65;;
38715;SDS011;24833;49.324;8.694;2022-10-31T07:26:18;5.90;;;2.67;;
38715;SDS011;24833;49.324;8.694;2022-10-31T07:28:46;5.85;;;2.65;;
38715;SDS011;24833;49.324;8.694;2022-10-31T07:31:17;5.00;;;2.50;;
38715;SDS011;24833;49.324;8.694;2022-10-31T07:33:44;6.47;;;2.75;;
38715;SDS011;24833;49.324;8.694;2022-10-31T07:36:26;6.22;;;2.17;;
38715;SDS011;24833;49.324;8.694;2022-10-31T07:38:58;5.25;;;2.65;;
38715;SDS011;24833;49.324;8.694;2022-10-31T07:41:25;4.50;;;2.53;;
38715;SDS011;24833;49.324;8.694;2022-10-31T07:43:53;5.70;;;3.45;;
38715;SDS011;24833;49.324;8.694;2022-10-31T07:46:40;7.97;;;3.13;;
38715;SDS011;24833;49.324;8.694;2022-10-31T07:49:25;4.60;;;2.58;;
38715;SDS011;24833;49.324;8.694;2022-10-31T07:52:11;5.22;;;3.03;;
38715;SDS011;24833;49.324;8.694;2022-10-31T07:54:57;4.82;;;2.72;;
38715;SDS011;24833;49.324;8.694;2022-10-31T07:57:24;5.68;;;3.38;;
38715;SDS011;24833;49.324;8.694;2022-10-31T07:59:56;4.28;;;2.88;;
38715;SDS011;24833;49.324;8.694;2022-10-31T08:02:23;6.25;;;3.22;;
38715;SDS011;24833;49.324;8.694;2022-10-31T08:05:25;5.22;;;3.22;;
38715;SDS011;24833;49.324;8.694;2022-10-31T08:08:18;5.40;;;3.00;;
38715;SDS011;24833;49.324;8.694;2022-10-31T08:10:46;4.80;;;3.05;;
38715;SDS011;24833;49.324;8.694;2022-10-31T08:13:13;6.22;;;3.25;;
38715;SDS011;24833;49.324;8.694;2022-10-31T08:15:44;4.78;;;3.20;;
38715;SDS011;24833;49.324;8.694;2022-10-31T08:18:16;5.32;;;3.15;;
38715;SDS011;24833;49.324;8.694;2022-10-31T08:20:43;8.00;;;3.47;;
38715;SDS011;24833;49.324;8.694;2022-10-31T08:23:11;7.93;;;3.95;;
38715;SDS011;24833;49.324;8.694;2022-10-31T08:25:41;5.35;;;3.05;;
38715;SDS011;24833;49.324;8.694;2022-10-31T08:28:09;7.18;;;3.55;;
38715;SDS011;24833;49.324;8.694;2022-10-31T08:30:40;7.32;;;4.18;;
38715;SDS011;24833;49.324;8.694;2022-10-31T08:33:26;8.95;;;3.85;;
38715;SDS011;24833;49.324;8.694;2022-10-31T08:36:16;8.93;;;4.25;;
38715;SDS011;24833;49.324;8.694;2022-10-31T08:39:05;8.82;;;4.18;;
38715;SDS011;24833;49.324;8.694;2022-10-31T08:41:32;7.50;;;3.67;;
38715;SDS011;24833;49.324;8.694;2022-10-31T08:43:59;6.32;;;3.75;;
38715;SDS011;24833;49.324;8.694;2022-10-31T08:46:27;7.32;;;4.43;;
38715;SDS011;24833;49.324;8.694;2022-10-31T08:48:54;8.85;;;5.30;;
38715;SDS011;24833;49.324;8.694;2022-10-31T08:51:22;9.40;;;4.82;;
38715;SDS011;24833;49.324;8.694;2022-10-31T08:53:51;9.60;;;4.40;;
38715;SDS011;24833;49.324;8.694;2022-10-31T08:56:21;10.15;;;4.45;;
38715;SDS011;24833;49.324;8.694;2022-10-31T08:58:48;6.55;;;4.45;;
38715;SDS011;24833;49.324;8.694;2022-10-31T09:01:21;7.00;;;3.90;;
38715;SDS011;24833;49.324;8.694;2022-10-31T09:03:49;8.27;;;4.30;;
38715;SDS011;24833;49.324;8.694;2022-10-31T09:06:16;6.18;;;3.58;;
38715;SDS011;24833;49.324;8.694;2022-10-31T09:08:46;5.40;;;3.25;;
38715;SDS011;24833;49.324;8.694;2022-10-31T09:11:13;8.50;;;4.47;;
38715;SDS011;24833;49.324;8.694;2022-10-31T09:14:03;4.47;;;2.78;;
38715;SDS011;24833;49.324;8.694;2022-10-31T09:16:48;5.53;;;3.25;;
38715;SDS011;24833;49.324;8.694;2022-10-31T09:19:21;6.03;;;3.15;;
38715;SDS011;24833;49.324;8.694;2022-10-31T09:21:51;5.88;;;3.03;;
38715;SDS011;24833;49.324;8.694;2022-10-31T09:24:21;4.32;;;2.40;;
38715;SDS011;24833;49.324;8.694;2022-10-31T09:26:48;5.15;;;2.97;;
38715;SDS011;24833;49.324;8.694;2022-10-31T09:29:25;5.18;;;3.00;;
38715;SDS011;24833;49.324;8.694;2022-10-31T09:31:56;6.15;;;3.42;;
38715;SDS011;24833;49.324;8.694;2022-10-31T09:34:26;8.25;;;3.72;;
38715;SDS011;24833;49.324;8.694;2022-10-31T09:37:02;5.65;;;3.72;;
38715;SDS011;24833;49.324;8.694;2022-10-31T09:39:29;5.40;;;3.63;;
38715;SDS011;24833;49.324;8.694;2022-10-31T09:44:56;6.90;;;3.45;;
38715;SDS011;24833;49.324;8.694;2022-10-31T09:50:38;5.05;;;3.35;;
38715;SDS011;24833;49.324;8.694;2022-10-31T09:56:41;7.95;;;3.70;;
38715;SDS011;24833;49.324;8.694;2022-10-31T09:59:33;4.38;;;3.80;;
38715;SDS011;24833;49.324;8.694;2022-10-31T10:02:16;5.18;;;3.45;;
38715;SDS011;24833;49.324;8.694;2022-10-31T10:04:59;8.52;;;4.05;;
38715;SDS011;24833;49.324;8.694;2022-10-31T10:11:21;6.15;;;3.85;;
38715;SDS011;24833;49.324;8.694;2022-10-31T10:28:52;7.57;;;4.53;;
38715;SDS011;24833;49.324;8.694;2022-10-31T10:31:30;6.50;;;4.40;;
38715;SDS011;24833;49.324;8.694;2022-10-31T10:36:57;5.68;;;3.78;;
38715;SDS011;24833;49.324;8.694;2022-10-31T10:39:33;6.43;;;3.85;;
38715;SDS011;24833;49.324;8.694;2022-10-31T10:42:07;8.48;;;3.72;;
38715;SDS011;24833;49.324;8.694;2022-10-31T10:44:59;6.85;;;3.78;;
38715;SDS011;24833;49.324;8.694;2022-10-31T10:47:56;5.72;;;3.08;;
38715;SDS011;24833;49.324;8.694;2022-10-31T10:51:10;5.60;;;3.42;;
38715;SDS011;24833;49.324;8.694;2022-10-31T11:00:00;8.82;;;4.45;;
38715;SDS011;24833;49.324;8.694;2022-10-31T11:02:42;6.88;;;4.32;;
38715;SDS011;24833;49.324;8.694;2022-10-31T11:05:18;9.18;;;4.60;;
38715;SDS011;24833;49.324;8.694;2022-10-31T11:08:02;9.30;;;5.00;;
38715;SDS011;24833;49.324;8.694;2022-10-31T11:10:30;9.65;;;4.97;;
38715;SDS011;24833;49.324;8.694;2022-10-31T11:15:35;10.40;;;6.22;;
38715;SDS011;24833;49.324;8.694;2022-10-31T11:18:19;8.27;;;5.85;;
38715;SDS011;24833;49.324;8.694;2022-10-31T11:20:57;9.40;;;5.25;;
38715;SDS011;24833;49.324;8.694;2022-10-31T11:23:27;8.65;;;6.00;;
38715;SDS011;24833;49.324;8.694;2022-10-31T11:26:02;9.75;;;5.80;;
38715;SDS011;24833;49.324;8.694;2022-10-31T11:28:44;7.50;;;5.65;;
38715;SDS011;24833;49.324;8.694;2022-10-31T11:31:25;7.57;;;5.57;;
38715;SDS011;24833;49.324;8.694;2022-10-31T11:33:57;10.10;;;5.88;;
38715;SDS011;24833;49.324;8.694;2022-10-31T11:36:42;8.38;;;5.30;;
38715;SDS011;24833;49.324;8.694;2022-10-31T11:39:15;6.80;;;5.65;;
38715;SDS011;24833;49.324;8.694;2022-10-31T11:41:48;10.30;;;5.97;;
38715;SDS011;24833;49.324;8.694;2022-10-31T11:44:25;13.07;;;6.53;;
38715;SDS011;24833;49.324;8.694;2022-10-31T11:46:56;7.72;;;5.60;;
38715;SDS011;24833;49.324;8.694;2022-10-31T11:49:28;8.00;;;5.50;;
38715;SDS011;24833;49.324;8.694;2022-10-31T11:52:06;10.23;;;6.22;;
38715;SDS011;24833;49.324;8.694;2022-10-31T11:57:46;7.10;;;5.03;;
38715;SDS011;24833;49.324;8.694;2022-10-31T12:00:23;7.07;;;5.32;;
38715;SDS011;24833;49.324;8.694;2022-10-31T12:08:49;9.02;;;5.28;;
38715;SDS011;24833;49.324;8.694;2022-10-31T12:11:31;9.75;;;5.93;;
38715;SDS011;24833;49.324;8.694;2022-10-31T12:17:16;11.50;;;5.78;;
38715;SDS011;24833;49.324;8.694;2022-10-31T12:23:28;7.55;;;5.22;;
38715;SDS011;24833;49.324;8.694;2022-10-31T12:30:02;10.48;;;6.32;;
38715;SDS011;24833;49.324;8.694;2022-10-31T12:32:57;10.13;;;5.55;;
38715;SDS011;24833;49.324;8.694;2022-10-31T12:36:00;8.55;;;5.70;;
38715;SDS011;24833;49.324;8.694;2022-10-31T12:41:46;11.80;;;5.35;;
38715;SDS011;24833;49.324;8.694;2022-10-31T12:44:40;8.13;;;5.13;;
38715;SDS011;24833;49.324;8.694;2022-10-31T12:56:08;5.93;;;5.20;;
38715;SDS011;24833;49.324;8.694;2022-10-31T12:59:02;6.68;;;5.10;;
38715;SDS011;24833;49.324;8.694;2022-10-31T13:01:49;8.35;;;5.03;;
38715;SDS011;24833;49.324;8.694;2022-10-31T13:04:49;8.00;;;5.25;;
38715;SDS011;24833;49.324;8.694;2022-10-31T13:07:36;8.15;;;5.65;;
38715;SDS011;24833;49.324;8.694;2022-10-31T13:10:15;7.68;;;5.05;;
38715;SDS011;24833;49.324;8.694;2022-10-31T13:12:43;8.43;;;5.53;;
38715;SDS011;24833;49.324;8.694;2022-10-31T13:17:48;8.27;;;5.15;;
38715;SDS011;24833;49.324;8.694;2022-10-31T13:29:05;7.80;;;3.35;;
38715;SDS011;24833;49.324;8.694;2022-10-31T13:32:05;6.38;;;3.50;;
38715;SDS011;24833;49.324;8.694;2022-10-31T13:34:34;7.18;;;4.35;;
38715;SDS011;24833;49.324;8.694;2022-10-31T13:37:19;6.93;;;4.23;;
38715;SDS011;24833;49.324;8.694;2022-10-31T13:40:34;8.75;;;3.53;;
38715;SDS011;24833;49.324;8.694;2022-10-31T13:43:16;5.78;;;3.10;;
38715;SDS011;24833;49.324;8.694;2022-10-31T13:46:33;7.28;;;3.42;;
38715;SDS011;24833;49.324;8.694;2022-10-31T13:54:52;4.85;;;3.30;;
38715;SDS011;24833;49.324;8.694;2022-10-31T13:57:30;9.32;;;3.78;;
38715;SDS011;24833;49.324;8.694;2022-10-31T14:02:55;8.88;;;4.38;;
38715;SDS011;24833;49.324;8.694;2022-10-31T14:05:27;4.88;;;3.25;;
38715;SDS011;24833;49.324;8.694;2022-10-31T14:08:00;4.85;;;3.17;;
38715;SDS011;24833;49.324;8.694;2022-10-31T14:10:35;6.05;;;3.03;;
38715;SDS011;24833;49.324;8.694;2022-10-31T14:13:20;7.03;;;2.60;;
38715;SDS011;24833;49.324;8.694;2022-10-31T14:15:53;3.80;;;2.30;;
38715;SDS011;24833;49.324;8.694;2022-10-31T14:18:25;5.38;;;2.88;;
38715;SDS011;24833;49.324;8.694;2022-10-31T14:20:58;3.97;;;2.80;;
38715;SDS011;24833;49.324;8.694;2022-10-31T14:23:36;4.32;;;2.78;;
38715;SDS011;24833;49.324;8.694;2022-10-31T14:26:17;4.80;;;2.65;;
38715;SDS011;24833;49.324;8.694;2022-10-31T14:39:40;5.40;;;3.42;;
38715;SDS011;24833;49.324;8.694;2022-10-31T14:48:34;6.82;;;3.33;;
38715;SDS011;24833;49.324;8.694;2022-10-31T14:51:27;5.05;;;3.42;;
38715;SDS011;24833;49.324;8.694;2022-10-31T14:54:05;5.38;;;3.55;;
38715;SDS011;24833;49.324;8.694;2022-10-31T14:56:37;8.57;;;3.33;;
38715;SDS011;24833;49.324;8.694;2022-10-31T14:59:16;4.53;;;3.03;;
38715;SDS011;24833;49.324;8.694;2022-10-31T15:01:56;6.47;;;3.50;;
38715;SDS011;24833;49.324;8.694;2022-10-31T15:04:43;5.32;;;3.63;;
38715;SDS011;24833;49.324;8.694;2022-10-31T15:07:14;7.15;;;4.38;;
38715;SDS011;24833;49.324;8.694;2022-10-31T15:10:00;5.68;;;3.78;;
38715;SDS011;24833;49.324;8.694;2022-10-31T15:12:33;6.90;;;4.63;;
38715;SDS011;24833;49.324;8.694;2022-10-31T15:15:14;8.85;;;5.30;;
38715;SDS011;24833;49.324;8.694;2022-10-31T15:17:51;8.25;;;4.93;;
38715;SDS011;24833;49.324;8.694;2022-10-31T15:20:26;9.63;;;5.07;;
38715;SDS011;24833;49.324;8.694;2022-10-31T15:22:57;8.52;;;4.22;;
38715;SDS011;24833;49.324;8.694;2022-10-31T15:25:25;8.68;;;4.80;;
38715;SDS011;24833;49.324;8.694;2022-10-31T15:28:00;5.72;;;4.40;;
38715;SDS011;24833;49.324;8.694;2022-10-31T15:30:28;8.60;;;4.47;;
38715;SDS011;24833;49.324;8.694;2022-10-31T15:32:56;8.90;;;4.45;;
38715;SDS011;24833;49.324;8.694;2022-10-31T15:35:28;9.77;;;4.65;;
38715;SDS011;24833;49.324;8.694;2022-10-31T15:37:57;7.70;;;4.97;;
38715;SDS011;24833;49.324;8.694;2022-10-31T15:40:26;6.53;;;4.60;;
38715;SDS011;24833;49.324;8.694;2022-10-31T15:45:26;8.82;;;5.10;;
38715;SDS011;24833;49.324;8.694;2022-10-31T15:53:03;7.10;;;4.70;;
38715;SDS011;24833;49.324;8.694;2022-10-31T15:55:33;9.63;;;4.70;;
38715;SDS011;24833;49.324;8.694;2022-10-31T15:58:11;7.22;;;4.60;;
38715;SDS011;24833;49.324;8.694;2022-10-31T16:00:42;7.75;;;4.05;;
38715;SDS011;24833;49.324;8.694;2022-10-31T16:08:25;5.90;;;3.25;;
38715;SDS011;24833;49.324;8.694;2022-10-31T16:13:54;7.38;;;3.45;;
38715;SDS011;24833;49.324;8.694;2022-10-31T16:16:28;7.82;;;3.70;;
38715;SDS011;24833;49.324;8.694;2022-10-31T16:19:02;4.45;;;3.10;;
38715;SDS011;24833;49.324;8.694;2022-10-31T16:21:32;8.73;;;3.55;;
38715;SDS011;24833;49.324;8.694;2022-10-31T16:24:20;14.20;;;3.35;;
38715;SDS011;24833;49.324;8.694;2022-10-31T16:26:54;5.63;;;3.17;;
38715;SDS011;24833;49.324;8.694;2022-10-31T16:29:44;5.10;;;2.88;;
38715;SDS011;24833;49.324;8.694;2022-10-31T16:37:38;5.38;;;2.53;;
38715;SDS011;24833;49.324;8.694;2022-10-31T16:40:13;5.32;;;3.20;;
38715;SDS011;24833;49.324;8.694;2022-10-31T16:42:41;5.82;;;3.05;;
38715;SDS011;24833;49.324;8.694;2022-10-31T16:45:14;6.03;;;3.17;;
38715;SDS011;24833;49.324;8.694;2022-10-31T16:47:46;3.60;;;2.47;;
38715;SDS011;24833;49.324;8.694;2022-10-31T16:50:16;6.22;;;2.78;;
38715;SDS011;24833;49.324;8.694;2022-10-31T16:52:50;7.93;;;2.80;;
38715;SDS011;24833;49.324;8.694;2022-10-31T16:58:16;7.20;;;3.10;;
38715;SDS011;24833;49.324;8.694;2022-10-31T17:00:50;6.93;;;3.25;;
38715;SDS011;24833;49.324;8.694;2022-10-31T17:03:18;4.97;;;2.80;;
38715;SDS011;24833;49.324;8.694;2022-10-31T17:05:46;4.28;;;2.30;;
38715;SDS011;24833;49.324;8.694;2022-10-31T17:08:13;4.65;;;2.50;;
38715;SDS011;24833;49.324;8.694;2022-10-31T17:10:41;6.25;;;2.55;;
38715;SDS011;24833;49.324;8.694;2022-10-31T17:13:13;6.30;;;2.80;;
38715;SDS011;24833;49.324;8.694;2022-10-31T17:15:46;6.53;;;3.00;;
38715;SDS011;24833;49.324;8.694;2022-10-31T17:18:17;8.15;;;3.15;;
38715;SDS011;24833;49.324;8.694;2022-10-31T17:20:55;5.25;;;2.47;;
38715;SDS011;24833;49.324;8.694;2022-10-31T17:23:25;4.07;;;2.65;;
38715;SDS011;24833;49.324;8.694;2022-10-31T17:25:54;7.57;;;3.08;;
38715;SDS011;24833;49.324;8.694;2022-10-31T17:28:21;6.55;;;2.78;;
38715;SDS011;24833;49.324;8.694;2022-10-31T17:30:49;3.22;;;2.50;;
38715;SDS011;24833;49.324;8.694;2022-10-31T17:33:16;11.10;;;3.10;;
38715;SDS011;24833;49.324;8.694;2022-10-31T17:35:43;8.50;;;3.22;;
38715;SDS011;24833;49.324;8.694;2022-10-31T17:38:10;7.22;;;3.00;;
38715;SDS011;24833;49.324;8.694;2022-10-31T17:40:38;6.63;;;3.00;;
38715;SDS011;24833;49.324;8.694;2022-10-31T17:43:09;6.05;;;3.13;;
38715;SDS011;24833;49.324;8.694;2022-10-31T17:45:37;5.38;;;3.15;;
38715;SDS011;24833;49.324;8.694;2022-10-31T17:48:06;4.85;;;2.95;;
38715;SDS011;24833;49.324;8.694;2022-10-31T17:50:37;5.38;;;3.25;;
38715;SDS011;24833;49.324;8.694;2022-10-31T17:53:04;6.05;;;3.50;;
38715;SDS011;24833;49.324;8.694;2022-10-31T17:55:31;8.32;;;3.25;;
38715;SDS011;24833;49.324;8.694;2022-10-31T17:58:02;8.25;;;3.47;;
38715;SDS011;24833;49.324;8.694;2022-10-31T18:00:30;7.38;;;3.67;;
38715;SDS011;24833;49.324;8.694;2022-10-31T18:02:58;6.10;;;3.33;;
38715;SDS011;24833;49.324;8.694;2022-10-31T18:05:26;6.30;;;4.00;;
38715;SDS011;24833;49.324;8.694;2022-10-31T18:07:54;6.43;;;2.97;;
38715;SDS011;24833;49.324;8.694;2022-10-31T18:12:51;5.30;;;3.00;;
38715;SDS011;24833;49.324;8.694;2022-10-31T18:15:18;7.05;;;2.88;;
38715;SDS011;24833;49.324;8.694;2022-10-31T18:17:46;7.72;;;3.42;;
38715;SDS011;24833;49.324;8.694;2022-10-31T18:20:13;7.30;;;3.58;;
38715;SDS011;24833;49.324;8.694;2022-10-31T18:22:39;7.25;;;3.08;;
38715;SDS011;24833;49.324;8.694;2022-10-31T18:25:07;5.47;;;3.17;;
38715;SDS011;24833;49.324;8.694;2022-10-31T18:27:34;6.93;;;3.03;;
38715;SDS011;24833;49.324;8.694;2022-10-31T18:30:01;5.30;;;3.30;;
38715;SDS011;24833;49.324;8.694;2022-10-31T18:32:29;7.90;;;5.00;;
38715;SDS011;24833;49.324;8.694;2022-10-31T18:34:56;12.93;;;5.80;;
38715;SDS011;24833;49.324;8.694;2022-10-31T18:37:23;7.63;;;5.53;;